createdAt,value
2022-08-05T04:06:35.116Z,99.90
2022-08-05T04:11:47.737Z,99.90
2022-08-05T04:16:55.036Z,99.90
2022-08-05T04:22:05.736Z,99.90
2022-08-05T04:27:15.895Z,99.90
2022-08-05T04:32:31.183Z,99.90
2022-08-05T04:38:01.502Z,99.90
2022-08-05T04:42:57.340Z,99.90
2022-08-05T04:48:07.340Z,99.90
2022-08-05T04:53:19.241Z,99.90
2022-08-05T04:58:22.725Z,99.90
2022-08-05T05:03:24.683Z,99.90
2022-08-05T05:08:30.452Z,99.90
2022-08-05T05:13:42.968Z,99.90
2022-08-05T05:19:08.897Z,99.90
2022-08-05T05:24:08.813Z,99.90
2022-08-05T05:29:14.898Z,99.90
2022-08-05T05:34:21.195Z,99.90
2022-08-05T05:39:34.578Z,99.90
2022-08-05T05:44:44.383Z,99.90
2022-08-05T05:49:56.994Z,99.90
2022-08-05T05:55:13.586Z,99.90
2022-08-05T06:00:21.594Z,99.90
2022-08-05T06:05:33.739Z,99.90
2022-08-05T06:10:37.383Z,99.90
2022-08-05T06:16:28.839Z,99.20
2022-08-05T06:21:16.593Z,99.90
2022-08-05T06:26:24.038Z,99.90
2022-08-05T06:31:30.441Z,99.90
2022-08-05T06:36:56.692Z,99.90
2022-08-05T06:41:58.960Z,99.90
2022-08-05T06:47:02.165Z,99.90
2022-08-05T06:52:04.818Z,99.90
2022-08-05T06:57:56.707Z,99.90
2022-08-05T07:02:29.439Z,99.90
2022-08-05T07:07:35.413Z,99.90
2022-08-05T07:13:03.461Z,99.90
2022-08-05T07:18:09.288Z,99.00
2022-08-05T07:23:13.022Z,97.60
2022-08-05T07:28:28.642Z,98.70
2022-08-05T07:33:36.855Z,93.50
2022-08-05T07:38:42.846Z,89.80
2022-08-05T07:43:45.981Z,92.30
2022-08-05T07:49:01.397Z,89.70
2022-08-05T07:54:08.401Z,91.20
2022-08-05T07:59:12.134Z,91.40
2022-08-05T08:04:16.573Z,93.30
2022-08-05T08:09:25.224Z,92.30
2022-08-05T08:14:31.083Z,87.30
2022-08-05T08:20:22.835Z,84.80
2022-08-05T08:24:55.505Z,87.00
2022-08-05T08:30:30.111Z,89.20
2022-08-05T08:35:28.282Z,90.10
2022-08-05T08:40:38.134Z,89.60
2022-08-05T08:45:41.518Z,86.10
2022-08-05T08:51:04.052Z,86.30
2022-08-05T08:56:07.191Z,72.60
2022-08-05T09:01:11.037Z,59.80
2022-08-05T09:06:20.415Z,57.90
2022-08-05T09:11:52.007Z,53.00
2022-08-05T09:16:48.940Z,50.80
2022-08-05T09:22:31.218Z,46.60
2022-08-05T09:28:05.055Z,43.90
2022-08-05T09:33:02.906Z,44.00
2022-08-05T09:38:16.648Z,41.90
2022-08-05T09:43:41.005Z,41.00
2022-08-05T09:49:03.703Z,40.30
2022-08-05T09:54:09.514Z,39.20
2022-08-05T09:59:16.861Z,38.60
2022-08-05T10:04:19.403Z,41.10
2022-08-05T10:09:45.246Z,38.50
2022-08-05T10:14:47.481Z,41.30
2022-08-05T10:20:04.135Z,39.00
2022-08-05T10:25:14.404Z,39.60
2022-08-05T10:31:20.867Z,39.00
2022-08-05T10:35:40.564Z,37.40
2022-08-05T10:40:59.186Z,37.80
2022-08-05T10:46:08.297Z,37.30
2022-08-05T10:51:21.686Z,36.80
2022-08-05T10:56:31.160Z,36.50
2022-08-05T11:01:54.172Z,37.20
2022-08-05T11:06:57.962Z,34.90
2022-08-05T11:12:00.007Z,34.90
2022-08-05T11:17:57.969Z,36.30
2022-08-05T11:22:54.079Z,36.50
2022-08-05T11:28:16.914Z,36.70
2022-08-05T11:33:46.697Z,35.10
2022-08-05T11:38:52.426Z,35.90
2022-08-05T11:44:13.003Z,36.20
2022-08-05T11:49:35.146Z,35.30
2022-08-05T11:54:38.264Z,36.40
2022-08-05T11:59:50.305Z,37.00
2022-08-05T12:04:59.212Z,36.30
2022-08-05T12:10:09.124Z,35.70
2022-08-05T12:15:38.375Z,32.60
2022-08-05T12:20:42.270Z,32.80
2022-08-05T12:25:53.633Z,31.50
2022-08-05T12:31:02.405Z,35.00
2022-08-05T12:36:08.797Z,30.00
2022-08-05T12:41:14.586Z,31.90
2022-08-05T12:46:28.949Z,31.80
2022-08-05T12:52:13.826Z,30.30
2022-08-05T12:56:58.368Z,30.30
2022-08-05T13:02:07.963Z,29.70
2022-08-05T13:07:55.948Z,29.90
2022-08-05T13:12:51.071Z,29.50
2022-08-05T13:17:59.617Z,30.30
2022-08-05T13:23:07.175Z,30.50
2022-08-05T13:28:10.569Z,29.90
2022-08-05T13:34:20.218Z,32.70
2022-08-05T13:38:36.338Z,32.50
2022-08-05T13:43:45.651Z,32.10
2022-08-05T13:49:01.011Z,29.90
2022-08-05T13:54:03.317Z,30.10
2022-08-05T13:59:20.277Z,29.70
2022-08-05T14:04:41.924Z,29.70
2022-08-05T14:09:46.364Z,30.00
2022-08-05T14:14:48.908Z,29.60
2022-08-05T14:19:56.814Z,29.60
2022-08-05T14:25:06.494Z,28.70
2022-08-05T14:30:21.648Z,29.40
2022-08-05T14:35:23.750Z,28.40
2022-08-05T14:40:39.629Z,27.70
2022-08-05T14:45:45.908Z,29.20
